createdAt,value
2023-03-23T00:01:03.069Z,60.19
2023-03-23T00:02:08.804Z,59.95
2023-03-23T00:03:14.189Z,60.45
2023-03-23T00:04:23.924Z,60.27
2023-03-23T00:05:29.414Z,60.31
2023-03-23T00:06:37.288Z,60.33
2023-03-23T00:07:42.670Z,61.32
2023-03-23T00:08:48.582Z,61.08
2023-03-23T00:10:03.727Z,60.41
2023-03-23T00:11:09.110Z,60.33
2023-03-23T00:12:14.620Z,60.43
2023-03-23T00:13:20.243Z,60.56
2023-03-23T00:14:26.153Z,60.4
2023-03-23T00:15:31.608Z,60.73
2023-03-23T00:16:37.406Z,60.46
2023-03-23T00:17:43.252Z,61.38
2023-03-23T00:18:48.892Z,61.11
2023-03-23T00:19:54.673Z,60.5
2023-03-23T00:21:00.091Z,60.46
2023-03-23T00:22:05.493Z,61.66
2023-03-23T00:23:11.440Z,60.44
2023-03-23T00:24:17.187Z,60.69
2023-03-23T00:25:22.885Z,60.3
2023-03-23T00:26:28.267Z,60.46
2023-03-23T00:27:33.961Z,60.93
2023-03-23T00:28:39.514Z,60.53
2023-03-23T00:29:44.873Z,60.37
2023-03-23T00:30:50.306Z,60.6
2023-03-23T00:31:55.798Z,60.76
2023-03-23T00:33:01.294Z,60.67
2023-03-23T00:34:06.900Z,60.27
2023-03-23T00:35:13.233Z,60.44
2023-03-23T00:36:19.640Z,60.62
2023-03-23T00:37:25.185Z,60.8
2023-03-23T00:38:31.629Z,60.33
2023-03-23T00:39:37.384Z,61.04
2023-03-23T00:40:43.110Z,60.73
2023-03-23T00:41:48.567Z,61.11
2023-03-23T00:42:54.220Z,60.55
2023-03-23T00:43:59.564Z,60.45
2023-03-23T00:45:05.352Z,60.55
2023-03-23T00:46:10.734Z,60.46
2023-03-23T00:47:16.420Z,60.53
2023-03-23T00:48:22.227Z,60.79
2023-03-23T00:49:27.662Z,61.13
2023-03-23T00:50:41.298Z,60.62
2023-03-23T00:51:47.113Z,61.32
2023-03-23T00:52:52.506Z,61.51
2023-03-23T00:53:57.883Z,60.84
2023-03-23T00:55:03.291Z,60.84
2023-03-23T00:56:08.718Z,60.99
2023-03-23T00:57:14.335Z,60.68
2023-03-23T00:58:19.708Z,61.07
2023-03-23T00:59:25.147Z,60.93
2023-03-23T01:00:30.530Z,61.34
2023-03-23T01:01:36.161Z,61.21
2023-03-23T01:02:41.552Z,61.07
2023-03-23T01:03:47.276Z,60.98
2023-03-23T01:04:52.729Z,60.95
2023-03-23T01:05:58.161Z,60.72
2023-03-23T01:07:03.576Z,60.64
2023-03-23T01:08:08.985Z,61.42
2023-03-23T01:09:14.341Z,61.36
2023-03-23T01:10:23.548Z,61.57
2023-03-23T01:11:29.230Z,61.34
2023-03-23T01:12:34.657Z,61.45
2023-03-23T01:13:40.484Z,62.27
2023-03-23T01:14:46.357Z,61.93
2023-03-23T01:15:51.761Z,61.66
2023-03-23T01:16:57.803Z,61.35
2023-03-23T01:18:03.446Z,61.68
2023-03-23T01:19:08.813Z,61.17
2023-03-23T01:20:14.269Z,61.46
2023-03-23T01:21:19.854Z,61.21
2023-03-23T01:22:25.245Z,61.26
2023-03-23T01:23:30.614Z,61.3
2023-03-23T01:24:36.012Z,61.24
2023-03-23T01:25:42.414Z,61.84
2023-03-23T01:26:48.023Z,61.77
2023-03-23T01:27:53.407Z,61.18
2023-03-23T01:28:59.165Z,61.33
2023-03-23T01:30:04.655Z,61.31
2023-03-23T01:31:17.381Z,61.5
2023-03-23T01:32:23.389Z,62.04
2023-03-23T01:33:29.876Z,61.62
2023-03-23T01:34:35.313Z,61.96
2023-03-23T01:35:41.090Z,61.5
2023-03-23T01:36:46.757Z,61.75
2023-03-23T01:37:52.140Z,61.32
2023-03-23T01:38:57.510Z,61.49
2023-03-23T01:40:02.979Z,61.49
2023-03-23T01:41:08.626Z,61.41
2023-03-23T01:42:14.242Z,62.17
2023-03-23T01:43:19.788Z,61.84
2023-03-23T01:44:25.685Z,61.53
2023-03-23T01:45:31.061Z,62.17
2023-03-23T01:46:36.423Z,61.43
2023-03-23T01:47:41.776Z,61.95
2023-03-23T01:48:49.818Z,61.16
2023-03-23T01:49:55.287Z,61.73
2023-03-23T01:51:00.807Z,61.66
2023-03-23T01:52:06.211Z,61.18
2023-03-23T01:53:12.114Z,61.64
2023-03-23T01:54:17.459Z,61.37
2023-03-23T01:55:22.910Z,61.58
2023-03-23T01:56:28.791Z,61.48
2023-03-23T01:57:34.347Z,61.97
2023-03-23T01:58:39.986Z,62.15
2023-03-23T01:59:46.668Z,61.68
2023-03-23T02:00:52.666Z,61.88
2023-03-23T02:01:58.508Z,61.74
2023-03-23T02:03:04.711Z,61.47
2023-03-23T02:04:10.089Z,61.86
2023-03-23T02:05:15.809Z,61.49
2023-03-23T02:06:21.375Z,61.69
2023-03-23T02:07:27.129Z,62.56
2023-03-23T02:08:32.555Z,62.27
2023-03-23T02:09:38.081Z,62.78
2023-03-23T02:10:52.756Z,61.86
2023-03-23T02:11:58.208Z,61.69
2023-03-23T02:13:03.602Z,61.39
2023-03-23T02:14:09.014Z,61.57
2023-03-23T02:15:14.476Z,61.55
2023-03-23T02:16:20.114Z,61.5
2023-03-23T02:17:25.944Z,61.69
2023-03-23T02:18:31.438Z,62.02
2023-03-23T02:19:36.947Z,61.86
2023-03-23T02:20:42.305Z,61.76
2023-03-23T02:21:47.868Z,61.93
2023-03-23T02:22:53.234Z,62.58
2023-03-23T02:23:58.778Z,61.79
2023-03-23T02:25:04.243Z,61.7
2023-03-23T02:26:09.939Z,62.06
2023-03-23T02:27:15.425Z,62.24
2023-03-23T02:28:22.409Z,62.14
2023-03-23T02:29:34.670Z,61.86
2023-03-23T02:30:40.409Z,61.72
2023-03-23T02:31:46.174Z,62.22
2023-03-23T02:32:51.563Z,61.88
2023-03-23T02:33:57.106Z,62.77
2023-03-23T02:35:02.566Z,62.02
2023-03-23T02:36:08.501Z,61.9
2023-03-23T02:37:14.148Z,61.93
2023-03-23T02:38:19.789Z,62.72
2023-03-23T02:39:25.800Z,61.57
2023-03-23T02:40:31.764Z,62.5
2023-03-23T02:41:37.697Z,61.98
2023-03-23T02:42:43.277Z,62.84
2023-03-23T02:43:49.097Z,62.24
2023-03-23T02:44:54.680Z,61.63
2023-03-23T02:46:00.268Z,62.05
2023-03-23T02:47:05.682Z,62.54
2023-03-23T02:48:12.040Z,62.2
2023-03-23T02:49:18.111Z,62.06
2023-03-23T02:50:23.715Z,61.94
2023-03-23T02:51:29.370Z,61.81
2023-03-23T02:52:48.959Z,61.81
2023-03-23T02:53:54.410Z,62.2
2023-03-23T02:54:59.822Z,62.08
2023-03-23T02:56:05.707Z,62.14
2023-03-23T02:57:11.165Z,61.63
2023-03-23T02:58:16.817Z,61.35
2023-03-23T02:59:22.457Z,61.98
2023-03-23T03:00:28.297Z,61.79
2023-03-23T03:01:35.776Z,61.69
2023-03-23T03:02:42.239Z,61.75
2023-03-23T03:03:49.137Z,62.2
2023-03-23T03:04:54.508Z,61.52
2023-03-23T03:06:01.753Z,61.4
2023-03-23T03:07:07.203Z,61.48
2023-03-23T03:08:13.064Z,62.49
2023-03-23T03:09:18.668Z,62.04
2023-03-23T03:10:24.023Z,61.63
2023-03-23T03:11:29.627Z,61.71
2023-03-23T03:12:36.190Z,61.46
2023-03-23T03:13:42.783Z,62.61
2023-03-23T03:14:49.046Z,61.55
2023-03-23T03:15:54.773Z,62.08
2023-03-23T03:17:00.952Z,61.72
2023-03-23T03:18:06.794Z,62.08
2023-03-23T03:19:12.607Z,61.97
2023-03-23T03:20:18.367Z,61.75
2023-03-23T03:21:24.725Z,61.45
2023-03-23T03:22:30.535Z,61.45
2023-03-23T03:23:36.044Z,61.71
2023-03-23T03:24:41.784Z,61.44
2023-03-23T03:25:47.315Z,62.13
2023-03-23T03:26:52.856Z,61.6
2023-03-23T03:27:58.639Z,61.45
2023-03-23T03:29:04.455Z,61.74
2023-03-23T03:30:10.068Z,61.61
2023-03-23T03:31:16.118Z,62.59
2023-03-23T03:32:21.906Z,61.9
2023-03-23T03:33:27.397Z,61.87
2023-03-23T03:34:32.780Z,61.87
2023-03-23T03:35:38.235Z,61.52
2023-03-23T03:36:44.228Z,61.57
2023-03-23T03:37:50.291Z,61.84
2023-03-23T03:38:56.126Z,61.51
2023-03-23T03:40:02.154Z,61.55
2023-03-23T03:41:08.521Z,61.69
2023-03-23T03:42:14.576Z,61.5
2023-03-23T03:43:20.292Z,62.29
2023-03-23T03:44:25.951Z,62.22
2023-03-23T03:45:31.956Z,62.25
2023-03-23T03:46:37.558Z,61.49
2023-03-23T03:47:43.070Z,61.88
2023-03-23T03:48:49.117Z,61.54
2023-03-23T03:49:54.435Z,61.88
2023-03-23T03:50:59.908Z,62.05
2023-03-23T03:52:05.569Z,61.7
2023-03-23T03:53:11.084Z,61.59
2023-03-23T03:54:16.897Z,61.93
2023-03-23T03:55:24.721Z,61.72
2023-03-23T03:56:31.555Z,62.34
2023-03-23T03:57:36.909Z,62.17
2023-03-23T03:58:42.540Z,61.83
2023-03-23T03:59:49.085Z,61.71
2023-03-23T04:00:55.700Z,61.84
2023-03-23T04:02:01.950Z,61.56
2023-03-23T04:03:07.485Z,61.8
2023-03-23T04:04:12.963Z,62.5
2023-03-23T04:05:18.738Z,62.26
2023-03-23T04:06:24.585Z,61.85
2023-03-23T04:07:31.694Z,62.67
2023-03-23T04:08:37.270Z,62.66
2023-03-23T04:09:42.860Z,62.54
2023-03-23T04:10:48.455Z,61.85
2023-03-23T04:11:54.511Z,62.04
2023-03-23T04:13:00.129Z,62.24
2023-03-23T04:14:06.415Z,62.17
2023-03-23T04:15:12.832Z,62.83
2023-03-23T04:16:19.431Z,62.23
2023-03-23T04:17:25.530Z,62.04
2023-03-23T04:18:31.654Z,62
2023-03-23T04:19:37.547Z,62.06
2023-03-23T04:20:42.891Z,62.14
2023-03-23T04:21:48.367Z,61.69
2023-03-23T04:22:54.651Z,61.83
2023-03-23T04:24:00.965Z,62.42
2023-03-23T04:25:07.817Z,62.87
2023-03-23T04:26:14.162Z,62.46
2023-03-23T04:27:20.194Z,61.86
2023-03-23T04:28:25.616Z,62.24
2023-03-23T04:29:33.674Z,61.76
2023-03-23T04:30:39.194Z,61.66
2023-03-23T04:31:45.916Z,61.92
2023-03-23T04:32:51.266Z,61.37
2023-03-23T04:34:02.339Z,61.67
2023-03-23T04:35:16.993Z,62.65
2023-03-23T04:36:22.812Z,62.77
2023-03-23T04:38:01.346Z,62.75
2023-03-23T04:39:09.736Z,62.88
2023-03-23T04:40:15.635Z,62.8
2023-03-23T04:41:21.027Z,62.51
2023-03-23T04:42:26.563Z,62.98
2023-03-23T04:43:31.892Z,62.96
2023-03-23T04:44:37.242Z,63.11
2023-03-23T04:45:43.263Z,63.29
2023-03-23T04:46:48.819Z,62.9
2023-03-23T04:47:54.429Z,62.91
2023-03-23T04:49:00.212Z,63.12
2023-03-23T04:50:05.823Z,63.23
2023-03-23T04:51:11.863Z,63.07
2023-03-23T04:52:17.308Z,63.18
2023-03-23T04:53:22.700Z,63.18
2023-03-23T04:54:28.165Z,62.27
2023-03-23T04:55:33.512Z,63.07
2023-03-23T04:56:38.943Z,63.18
2023-03-23T04:57:44.288Z,62.79
2023-03-23T04:58:49.699Z,62.68
2023-03-23T04:59:55.063Z,62.97
2023-03-23T05:01:00.633Z,62.96
2023-03-23T05:02:20.467Z,63.12
2023-03-23T05:03:34.757Z,63.05
2023-03-23T05:04:40.120Z,62.93
2023-03-23T05:05:46.079Z,62.26
2023-03-23T05:06:51.404Z,61.11
2023-03-23T05:08:00.873Z,61.43
2023-03-23T05:09:06.280Z,58.92
2023-03-23T05:10:11.607Z,58
2023-03-23T05:11:16.946Z,57.93
2023-03-23T05:12:22.322Z,57.43
2023-03-23T05:13:27.678Z,57.69
2023-03-23T05:14:41.354Z,57.29
2023-03-23T05:15:47.698Z,57.19
2023-03-23T05:16:53.919Z,57.29
2023-03-23T05:17:59.276Z,57.33
2023-03-23T05:19:04.609Z,57.16
2023-03-23T05:20:09.969Z,57.11
2023-03-23T05:21:15.337Z,56.85
2023-03-23T05:22:20.692Z,56.82
2023-03-23T05:23:26.008Z,56.74
2023-03-23T05:24:31.360Z,56.76
2023-03-23T05:25:36.717Z,56.58
2023-03-23T05:26:42.065Z,56.53
2023-03-23T05:27:47.436Z,56.38
2023-03-23T05:28:55.236Z,56.45
2023-03-23T05:30:07.636Z,56.43
2023-03-23T05:31:13.037Z,56.26
2023-03-23T05:32:18.412Z,56.12
2023-03-23T05:33:23.736Z,56.11
2023-03-23T05:34:29.076Z,56.21
2023-03-23T05:35:34.518Z,55.87
2023-03-23T05:36:39.866Z,55.87
2023-03-23T05:37:45.261Z,55.98
2023-03-23T05:38:50.576Z,55.9
2023-03-23T05:39:55.914Z,55.94
2023-03-23T05:41:01.271Z,55.95
2023-03-23T05:42:06.692Z,55.97
2023-03-23T05:43:12.028Z,55.95
2023-03-23T05:44:17.369Z,55.97
2023-03-23T05:45:22.728Z,55.9
2023-03-23T05:46:28.073Z,55.96
2023-03-23T05:47:33.469Z,55.97
2023-03-23T05:48:38.798Z,55.93
2023-03-23T05:49:44.137Z,56.05
2023-03-23T05:50:49.491Z,56.07
2023-03-23T05:51:55.093Z,56.04
2023-03-23T05:53:00.410Z,56
2023-03-23T05:54:05.756Z,56.1
2023-03-23T05:55:11.073Z,56.12
2023-03-23T05:56:16.541Z,55.97
2023-03-23T05:57:22.119Z,56.02
2023-03-23T05:58:30.190Z,56
2023-03-23T05:59:44.376Z,56.04
2023-03-23T06:00:49.909Z,56.03
2023-03-23T06:01:55.368Z,56.1
2023-03-23T06:03:00.707Z,56.19
2023-03-23T06:04:06.315Z,56.16
2023-03-23T06:05:11.717Z,56.04
2023-03-23T06:06:17.288Z,56.05
2023-03-23T06:07:22.647Z,56.06
2023-03-23T06:08:28.006Z,56.06
2023-03-23T06:09:33.345Z,56.11
2023-03-23T06:10:38.728Z,56.05
2023-03-23T06:11:44.075Z,56.01
2023-03-23T06:12:49.394Z,55.99
2023-03-23T06:13:54.741Z,55.89
2023-03-23T06:15:00.173Z,55.87
2023-03-23T06:16:05.522Z,55.93
2023-03-23T06:17:10.851Z,55.95
2023-03-23T06:18:16.208Z,55.91
2023-03-23T06:19:21.531Z,55.92
2023-03-23T06:20:27.240Z,55.94
2023-03-23T06:21:32.588Z,56.03
2023-03-23T06:22:37.917Z,56.01
2023-03-23T06:23:43.268Z,55.96
2023-03-23T06:24:48.611Z,55.94
2023-03-23T06:26:07.178Z,56.05
2023-03-23T06:27:15.115Z,55.92
2023-03-23T06:28:22.044Z,55.95
2023-03-23T06:29:27.386Z,55.88
2023-03-23T06:30:32.880Z,55.83
2023-03-23T06:31:44.717Z,55.91
2023-03-23T06:32:50.049Z,55.83
2023-03-23T06:33:55.443Z,55.81
2023-03-23T06:35:00.816Z,55.66
2023-03-23T06:36:06.376Z,55.74
2023-03-23T06:37:11.778Z,55.68
2023-03-23T06:38:17.131Z,55.59
2023-03-23T06:39:22.530Z,55.45
2023-03-23T06:40:27.879Z,55.5
2023-03-23T06:41:33.364Z,55.5
2023-03-23T06:42:38.741Z,55.57
2023-03-23T06:43:44.094Z,55.55
2023-03-23T06:44:49.448Z,55.55
2023-03-23T06:45:54.807Z,55.4
2023-03-23T06:47:00.165Z,55.43
2023-03-23T06:48:05.516Z,55.52
2023-03-23T06:49:11.033Z,55.52
2023-03-23T06:50:16.432Z,55.58
2023-03-23T06:51:21.829Z,55.48
2023-03-23T06:52:27.200Z,55.46
2023-03-23T06:53:32.545Z,55.53
2023-03-23T06:54:38.892Z,55.61
2023-03-23T06:55:45.511Z,55.45
2023-03-23T06:56:50.870Z,55.61
2023-03-23T06:57:56.259Z,55.59
2023-03-23T06:59:01.593Z,55.62
2023-03-23T07:00:08.324Z,55.58
2023-03-23T07:01:14.723Z,55.54
2023-03-23T07:02:20.105Z,55.54
2023-03-23T07:03:25.439Z,55.49
2023-03-23T07:04:30.761Z,55.47
2023-03-23T07:05:36.199Z,55.47
2023-03-23T07:06:41.532Z,55.43
2023-03-23T07:07:46.856Z,55.4
2023-03-23T07:08:52.176Z,55.43
2023-03-23T07:09:57.502Z,55.47
2023-03-23T07:11:02.858Z,55.41
2023-03-23T07:12:08.229Z,55.35
2023-03-23T07:13:13.586Z,55.37
2023-03-23T07:14:18.930Z,55.31
2023-03-23T07:15:26.363Z,55.36
2023-03-23T07:16:31.728Z,55.34
2023-03-23T07:17:37.121Z,55.26
2023-03-23T07:18:42.471Z,55.25
2023-03-23T07:19:47.819Z,55.2
2023-03-23T07:20:53.170Z,55.19
2023-03-23T07:21:58.485Z,55.29
2023-03-23T07:23:03.821Z,55.24
2023-03-23T07:24:09.144Z,55.21
2023-03-23T07:25:14.623Z,55.31
2023-03-23T07:26:19.996Z,55.31
2023-03-23T07:27:25.386Z,55.29
2023-03-23T07:28:30.710Z,55.27
2023-03-23T07:29:36.041Z,55.2
2023-03-23T07:30:41.402Z,55.16
2023-03-23T07:31:46.764Z,55.17
2023-03-23T07:32:52.118Z,55.21
2023-03-23T07:33:57.486Z,55.22
2023-03-23T07:35:09.343Z,55.27
2023-03-23T07:36:15.337Z,55.27
2023-03-23T07:37:20.735Z,55.32
2023-03-23T07:38:26.280Z,55.36
2023-03-23T07:39:31.651Z,55.37
2023-03-23T07:40:36.999Z,55.29
2023-03-23T07:41:42.358Z,55.31
2023-03-23T07:42:47.701Z,55.28
2023-03-23T07:43:53.052Z,55.33
2023-03-23T07:44:58.416Z,55.28
2023-03-23T07:46:03.779Z,55.23
2023-03-23T07:47:09.128Z,55.25
2023-03-23T07:48:23.800Z,55.25
2023-03-23T07:49:36.182Z,55.24
2023-03-23T07:50:41.528Z,55.2
2023-03-23T07:51:46.861Z,55.21
2023-03-23T07:52:52.183Z,55.19
2023-03-23T07:53:57.631Z,55.19
2023-03-23T07:55:02.996Z,55.21
2023-03-23T07:56:08.387Z,55.17
2023-03-23T07:57:13.740Z,54.91
2023-03-23T07:58:19.095Z,55.22
2023-03-23T07:59:24.476Z,55.17
2023-03-23T08:00:30.113Z,55.16
2023-03-23T08:01:35.441Z,55.16
2023-03-23T08:02:40.858Z,55.18
2023-03-23T08:03:48.349Z,55.15
2023-03-23T08:04:53.726Z,55.19
2023-03-23T08:05:59.077Z,55.15
2023-03-23T08:07:04.458Z,55.16
2023-03-23T08:08:09.921Z,55.19
2023-03-23T08:09:15.302Z,55.1
2023-03-23T08:10:20.660Z,55.1
2023-03-23T08:11:26.037Z,55.17
2023-03-23T08:12:31.390Z,55.17
2023-03-23T08:13:36.794Z,55.17
2023-03-23T08:14:42.144Z,55.13
2023-03-23T08:15:47.605Z,55.08
2023-03-23T08:16:52.959Z,55.05
2023-03-23T08:17:58.272Z,55.07
2023-03-23T08:19:11.653Z,55.08
2023-03-23T08:20:17.073Z,55.05
2023-03-23T08:21:22.389Z,55.06
2023-03-23T08:22:27.785Z,55.09
2023-03-23T08:23:33.359Z,55.05
2023-03-23T08:24:38.688Z,55.02
2023-03-23T08:25:44.635Z,54.95
2023-03-23T08:26:50.004Z,54.98
2023-03-23T08:27:55.638Z,54.93
2023-03-23T08:29:01.004Z,54.96
2023-03-23T08:30:06.326Z,55
2023-03-23T08:31:11.661Z,55
2023-03-23T08:32:17.027Z,55
2023-03-23T08:33:22.345Z,55.04
2023-03-23T08:34:27.721Z,55.06
2023-03-23T08:35:33.138Z,55.06
2023-03-23T08:36:41.156Z,55.1
2023-03-23T08:37:46.522Z,55.1
2023-03-23T08:38:52.129Z,55.02
2023-03-23T08:39:57.739Z,55.07
2023-03-23T08:41:03.115Z,55.01
2023-03-23T08:42:08.455Z,55
2023-03-23T08:43:13.800Z,54.96
2023-03-23T08:44:19.120Z,54.98
2023-03-23T08:45:24.541Z,55
2023-03-23T08:46:29.886Z,54.99
2023-03-23T08:47:35.349Z,54.96
2023-03-23T08:48:40.956Z,54.88
2023-03-23T08:49:46.283Z,54.86
2023-03-23T08:50:51.631Z,54.94
2023-03-23T08:51:56.964Z,54.83
2023-03-23T08:53:02.335Z,54.81
2023-03-23T08:54:07.673Z,54.87
2023-03-23T08:55:13.024Z,54.86
2023-03-23T08:56:18.384Z,54.81
2023-03-23T08:57:23.725Z,54.8
2023-03-23T08:58:29.083Z,54.79
2023-03-23T08:59:34.413Z,54.71
2023-03-23T09:00:51.302Z,54.7
2023-03-23T09:01:56.691Z,54.65
2023-03-23T09:03:05.066Z,54.68
2023-03-23T09:04:10.451Z,54.59
2023-03-23T09:05:15.791Z,54.58
2023-03-23T09:06:21.210Z,54.61
2023-03-23T09:07:26.579Z,54.55
2023-03-23T09:08:31.907Z,54.51
2023-03-23T09:09:37.250Z,54.5
2023-03-23T09:10:42.583Z,54.45
2023-03-23T09:11:47.975Z,54.45
2023-03-23T09:12:53.730Z,54.46
2023-03-23T09:13:59.071Z,54.42
2023-03-23T09:15:04.470Z,54.42
2023-03-23T09:16:09.814Z,54.45
2023-03-23T09:17:15.213Z,54.42
2023-03-23T09:18:20.568Z,54.45
2023-03-23T09:19:25.890Z,54.42
2023-03-23T09:20:31.277Z,54.4
2023-03-23T09:21:36.604Z,54.44
2023-03-23T09:22:41.967Z,54.37
2023-03-23T09:23:48.331Z,54.41
2023-03-23T09:24:54.421Z,54.42
2023-03-23T09:25:59.783Z,54.41
2023-03-23T09:27:05.094Z,54.37
2023-03-23T09:28:10.447Z,54.34
2023-03-23T09:29:15.796Z,54.28
2023-03-23T09:30:21.188Z,54.28
2023-03-23T09:31:26.549Z,54.22
2023-03-23T09:32:31.930Z,54.25
2023-03-23T09:33:37.277Z,54.22
2023-03-23T09:34:52.474Z,54.21
2023-03-23T09:35:57.940Z,54.2
2023-03-23T09:37:03.311Z,54.16
2023-03-23T09:38:08.688Z,54.23
2023-03-23T09:39:14.048Z,54.22
2023-03-23T09:40:19.396Z,54.18
2023-03-23T09:41:24.749Z,54.22
2023-03-23T09:42:30.087Z,54.22
2023-03-23T09:43:35.444Z,54.26
2023-03-23T09:44:40.824Z,54.22
2023-03-23T09:45:46.419Z,54.18
2023-03-23T09:46:51.790Z,54.22
2023-03-23T09:47:57.162Z,54.2
2023-03-23T09:49:04.762Z,54.17
2023-03-23T09:50:10.106Z,54.17
2023-03-23T09:51:15.469Z,54.2
2023-03-23T09:52:20.836Z,54.17
2023-03-23T09:53:26.231Z,54.18
2023-03-23T09:54:31.594Z,54.22
2023-03-23T09:55:36.920Z,54.13
2023-03-23T09:56:42.435Z,54.17
2023-03-23T09:57:47.791Z,54.11
2023-03-23T09:58:53.252Z,54.19
2023-03-23T09:59:58.668Z,54.16
2023-03-23T10:01:04.127Z,54.09
2023-03-23T10:02:09.559Z,54.15
2023-03-23T10:03:14.982Z,54.09
2023-03-23T10:04:20.461Z,54.04
2023-03-23T10:05:25.875Z,54.17
2023-03-23T10:06:31.260Z,54.18
2023-03-23T10:07:36.883Z,54.13
2023-03-23T10:08:57.493Z,54.21
2023-03-23T10:10:02.996Z,54.1
2023-03-23T10:11:08.356Z,54.08
2023-03-23T10:12:13.764Z,54.11
2023-03-23T10:13:19.196Z,54.17
2023-03-23T10:14:24.593Z,54.28
2023-03-23T10:15:29.966Z,54.11
2023-03-23T10:16:35.342Z,54.21
2023-03-23T10:17:40.792Z,54.17
2023-03-23T10:18:46.205Z,54.14
2023-03-23T10:19:51.593Z,54.2
2023-03-23T10:20:56.962Z,54.31
2023-03-23T10:22:03.357Z,54.33
2023-03-23T10:23:08.763Z,54.18
2023-03-23T10:24:14.120Z,54.32
2023-03-23T10:25:19.539Z,54.24
2023-03-23T10:26:24.932Z,54.33
2023-03-23T10:27:30.268Z,54.35
2023-03-23T10:28:35.675Z,54.24
2023-03-23T10:29:41.060Z,54.25
2023-03-23T10:30:46.458Z,54.29
2023-03-23T10:31:57.500Z,54.19
2023-03-23T10:33:02.913Z,54.27
2023-03-23T10:34:08.392Z,54.21
2023-03-23T10:35:13.746Z,54.24
2023-03-23T10:36:19.257Z,54.24
2023-03-23T10:37:24.659Z,54.21
2023-03-23T10:38:30.072Z,54.27
2023-03-23T10:39:35.509Z,54.26
2023-03-23T10:40:40.900Z,54.27
2023-03-23T10:41:46.258Z,54.26
2023-03-23T10:42:51.659Z,54.2
2023-03-23T10:43:57.012Z,54.29
2023-03-23T10:45:02.367Z,54.22
2023-03-23T10:46:08.287Z,54.23
2023-03-23T10:47:13.666Z,54.16
2023-03-23T10:48:19.031Z,54.29
2023-03-23T10:49:24.426Z,54.34
2023-03-23T10:50:29.907Z,54.3
2023-03-23T10:51:35.489Z,54.31
2023-03-23T10:52:40.856Z,54.05
2023-03-23T10:53:46.214Z,54.19
2023-03-23T10:54:51.602Z,54.34
2023-03-23T10:55:57.155Z,54.33
2023-03-23T10:57:05.417Z,54.27
2023-03-23T10:58:10.976Z,54.2
2023-03-23T10:59:16.375Z,54.15
2023-03-23T11:00:22.136Z,54.11
2023-03-23T11:01:27.645Z,54.13
2023-03-23T11:02:33.033Z,53.87
2023-03-23T11:03:38.419Z,54.16
2023-03-23T11:04:43.841Z,54.17
2023-03-23T11:05:49.193Z,54.15
2023-03-23T11:06:54.703Z,54.04
2023-03-23T11:08:00.262Z,54.09
2023-03-23T11:09:05.619Z,54.08
2023-03-23T11:10:10.994Z,54.06
2023-03-23T11:11:16.421Z,54.12
2023-03-23T11:12:22.208Z,54.09
2023-03-23T11:13:27.579Z,54.12
2023-03-23T11:14:32.972Z,54.17
2023-03-23T11:15:38.332Z,54.02
2023-03-23T11:16:43.738Z,54.11
2023-03-23T11:17:49.155Z,54.05
2023-03-23T11:18:54.572Z,54.04
2023-03-23T11:19:59.938Z,54
2023-03-23T11:21:05.327Z,54.03
2023-03-23T11:22:10.711Z,53.96
2023-03-23T11:23:16.074Z,54
2023-03-23T11:24:21.457Z,54.1
2023-03-23T11:25:26.876Z,54.11
2023-03-23T11:26:32.296Z,54.05
2023-03-23T11:27:37.719Z,54
2023-03-23T11:28:43.106Z,54.04
2023-03-23T11:29:59.878Z,54
2023-03-23T11:31:05.286Z,53.78
2023-03-23T11:32:10.706Z,54.2
2023-03-23T11:33:16.105Z,53.96
2023-03-23T11:34:21.506Z,54.02
2023-03-23T11:35:27.059Z,53.97
2023-03-23T11:36:32.591Z,53.77
2023-03-23T11:37:37.957Z,53.73
2023-03-23T11:38:43.339Z,53.82
2023-03-23T11:39:48.734Z,54.05
2023-03-23T11:40:54.136Z,53.85
2023-03-23T11:42:11.743Z,53.58
2023-03-23T11:43:17.083Z,54.14
2023-03-23T11:44:22.914Z,54.24
2023-03-23T11:45:28.271Z,54.25
2023-03-23T11:46:33.681Z,54.15
2023-03-23T11:47:39.053Z,54.09
2023-03-23T11:48:44.433Z,54.19
2023-03-23T11:49:49.837Z,54.11
2023-03-23T11:50:55.232Z,54
2023-03-23T11:52:00.595Z,53.98
2023-03-23T11:53:05.979Z,53.98
2023-03-23T11:54:11.380Z,53.93
2023-03-23T11:55:16.895Z,53.94
2023-03-23T11:56:22.305Z,53.91
2023-03-23T11:57:27.749Z,53.96
2023-03-23T11:58:33.087Z,53.99
2023-03-23T11:59:38.485Z,53.94
2023-03-23T12:00:43.858Z,53.95
2023-03-23T12:01:49.318Z,53.89
2023-03-23T12:02:54.713Z,53.97
2023-03-23T12:04:00.110Z,53.98
2023-03-23T12:05:05.490Z,53.97
2023-03-23T12:06:10.961Z,53.95
2023-03-23T12:07:16.416Z,53.98
2023-03-23T12:08:22.960Z,54.01
2023-03-23T12:09:28.434Z,54.01
2023-03-23T12:10:57.033Z,54.04
2023-03-23T12:12:02.864Z,54.05
2023-03-23T12:13:09.354Z,54.05
2023-03-23T12:14:14.748Z,54.15
2023-03-23T12:15:20.141Z,54.03
2023-03-23T12:16:25.585Z,54.12
2023-03-23T12:17:30.940Z,54.1
2023-03-23T12:18:36.301Z,54.16
2023-03-23T12:19:41.694Z,54.13
2023-03-23T12:20:48.130Z,54.06
2023-03-23T12:21:53.479Z,54.1
2023-03-23T12:22:58.846Z,54.13
2023-03-23T12:24:07.751Z,54.07
2023-03-23T12:25:13.154Z,54.14
2023-03-23T12:26:18.594Z,54.13
2023-03-23T12:27:23.963Z,54.11
2023-03-23T12:28:29.339Z,54.09
2023-03-23T12:29:34.699Z,54.2
2023-03-23T12:30:40.047Z,54.21
2023-03-23T12:32:50.735Z,54.21
2023-03-23T12:33:56.114Z,54.23
2023-03-23T12:35:01.780Z,54.18
2023-03-23T12:36:07.361Z,54.2
2023-03-23T12:37:12.709Z,54.2
2023-03-23T12:38:18.078Z,54.26
2023-03-23T12:39:23.443Z,54.28
2023-03-23T12:40:28.809Z,54.25
2023-03-23T12:41:34.138Z,54.29
2023-03-23T12:42:39.502Z,54.31
2023-03-23T12:43:44.821Z,54.34
2023-03-23T12:44:50.243Z,54.33
2023-03-23T12:45:55.602Z,54.38
2023-03-23T12:47:00.964Z,54.38
2023-03-23T12:48:06.333Z,54.5
2023-03-23T12:49:11.673Z,54.46
2023-03-23T12:50:17.060Z,54.3
2023-03-23T12:51:22.431Z,54.46
2023-03-23T12:52:27.781Z,54.48
2023-03-23T12:53:33.134Z,54.44
2023-03-23T12:54:38.503Z,54.41
2023-03-23T12:55:44.569Z,54.36
2023-03-23T12:56:49.987Z,54.37
2023-03-23T12:57:55.360Z,54.38
2023-03-23T12:59:00.694Z,54.37
2023-03-23T13:00:06.326Z,54.37
2023-03-23T13:01:11.725Z,54.34
2023-03-23T13:02:17.052Z,54.32
2023-03-23T13:03:22.388Z,54.33
2023-03-23T13:04:27.758Z,54.37
2023-03-23T13:05:33.114Z,54.42
2023-03-23T13:06:38.464Z,54.44
2023-03-23T13:07:43.816Z,54.4
2023-03-23T13:08:49.186Z,54.49
2023-03-23T13:09:54.561Z,54.43
2023-03-23T13:10:59.941Z,54.49
2023-03-23T13:12:05.305Z,54.46
2023-03-23T13:13:23.754Z,54.4
2023-03-23T13:14:29.089Z,54.48
2023-03-23T13:15:34.483Z,54.36
2023-03-23T13:16:40.047Z,54.35
2023-03-23T13:17:45.514Z,54.38
2023-03-23T13:18:50.873Z,54.38
2023-03-23T13:19:56.205Z,54.33
2023-03-23T13:21:01.606Z,54.33
2023-03-23T13:22:06.965Z,54.33
2023-03-23T13:23:12.310Z,54.42
2023-03-23T13:24:17.676Z,54.36
2023-03-23T13:25:23.037Z,54.25
2023-03-23T13:26:28.384Z,54.26
2023-03-23T13:27:34.807Z,54.28
2023-03-23T13:28:40.249Z,54.24
2023-03-23T13:29:45.627Z,54.2
2023-03-23T13:30:51.012Z,54.18
2023-03-23T13:31:56.327Z,54.23
2023-03-23T13:33:01.952Z,54.25
2023-03-23T13:34:07.313Z,54.25
2023-03-23T13:35:12.700Z,54.31
2023-03-23T13:36:21.774Z,54.28
2023-03-23T13:37:27.166Z,54.29
2023-03-23T13:38:32.515Z,54.29
2023-03-23T13:39:37.976Z,54.29
2023-03-23T13:40:44.185Z,54.3
2023-03-23T13:41:49.665Z,54.28
2023-03-23T13:42:55.002Z,54.29
2023-03-23T13:44:00.355Z,54.29
2023-03-23T13:45:05.711Z,54.34
2023-03-23T13:46:11.062Z,54.41
2023-03-23T13:47:16.384Z,54.43
2023-03-23T13:48:21.722Z,54.49
2023-03-23T13:49:27.084Z,54.47
2023-03-23T13:50:32.450Z,54.52
2023-03-23T13:51:37.824Z,54.84
2023-03-23T13:52:43.145Z,54.77
2023-03-23T13:53:48.528Z,54.88
2023-03-23T13:54:53.867Z,54.88
2023-03-23T13:56:08.854Z,54.87
2023-03-23T13:57:17.379Z,55.13
2023-03-23T13:58:22.917Z,55.47
2023-03-23T13:59:28.258Z,56
2023-03-23T14:00:33.774Z,56.57
2023-03-23T14:01:39.162Z,56.14
2023-03-23T14:02:44.513Z,56.1
2023-03-23T14:03:49.941Z,56.27
2023-03-23T14:04:55.302Z,56.23
2023-03-23T14:06:00.696Z,56.8
2023-03-23T14:07:06.032Z,56.84
2023-03-23T14:08:11.439Z,56.8
2023-03-23T14:09:17.813Z,56.44
2023-03-23T14:10:23.187Z,56.5
2023-03-23T14:11:28.563Z,56.67
2023-03-23T14:12:34.129Z,56.68
2023-03-23T14:13:39.493Z,56.36
2023-03-23T14:14:44.888Z,56.63
2023-03-23T14:15:50.226Z,56.77